Terminal Aerodrome Forecast
Issued by NWS

Home | Current Version | Previous Version | Text Only | Print | Product List | Glossary On
Versions: 1 2 3 4 5 6 7 8 9 10 11 12 13 14 15 16 17
000
FTUS43 KDVN 262300
TAFBRL
TAF
KBRL 262320Z 2700/2724 04006KT P6SM FEW120 SCT250
      TEMPO 2710/2714 4SM -TSRA FEW015 BKN030CB OVC080
     FM271500 07006KT P6SM FEW040 SCT250=

USA.gov is the U.S. government's official web portal to all federal, state and local government web resources and services.